createdAt,value
2019-03-08T00:01:49.186Z,58.56
2019-03-08T00:04:18.610Z,58.65
2019-03-08T00:06:48.017Z,58.39
2019-03-08T00:09:17.524Z,57.79
2019-03-08T00:11:47.068Z,58.18
2019-03-08T00:14:16.498Z,57.41
2019-03-08T00:16:46.704Z,57.47
2019-03-08T00:19:16.126Z,57.75
2019-03-08T00:21:47.143Z,57.79
2019-03-08T00:24:17.284Z,57.95
2019-03-08T00:26:46.759Z,58.23
2019-03-08T00:29:16.326Z,58.40
2019-03-08T00:31:45.766Z,58.14
2019-03-08T00:34:15.170Z,58.14
2019-03-08T00:36:47.596Z,58.10
2019-03-08T00:39:17.000Z,58.32
2019-03-08T00:41:46.494Z,58.71
2019-03-08T00:44:15.883Z,58.52
2019-03-08T00:46:45.376Z,58.54
2019-03-08T00:49:14.780Z,58.54
2019-03-08T00:51:44.210Z,58.74
2019-03-08T00:54:13.608Z,58.53
2019-03-08T00:56:43.112Z,58.63
2019-03-08T00:59:12.516Z,58.70
2019-03-08T01:01:42.081Z,58.98
2019-03-08T01:04:13.292Z,59.11
2019-03-08T01:06:42.780Z,59.32
2019-03-08T01:09:12.333Z,59.62
2019-03-08T01:11:41.901Z,59.74
2019-03-08T01:14:11.335Z,60.09
2019-03-08T01:16:40.801Z,60.09
2019-03-08T01:19:10.224Z,60.39
2019-03-08T01:21:39.709Z,60.71
2019-03-08T01:24:09.198Z,61.38
2019-03-08T01:26:38.748Z,61.33
2019-03-08T01:29:08.183Z,61.59
2019-03-08T01:31:37.937Z,62.03
2019-03-08T01:34:07.447Z,62.38
2019-03-08T01:36:36.847Z,62.72
2019-03-08T01:39:07.977Z,62.87
2019-03-08T01:41:37.605Z,63.02
2019-03-08T01:44:07.099Z,63.24
2019-03-08T01:46:36.600Z,63.25
2019-03-08T01:49:06.065Z,63.57
2019-03-08T01:51:38.467Z,63.20
2019-03-08T01:54:08.862Z,63.89
2019-03-08T01:56:38.291Z,64.01
2019-03-08T01:59:07.698Z,64.40
2019-03-08T02:01:37.209Z,64.06
2019-03-08T02:04:06.665Z,64.06
2019-03-08T02:06:36.159Z,64.22
2019-03-08T02:09:06.430Z,64.44
2019-03-08T02:11:37.480Z,64.33
2019-03-08T02:14:07.011Z,64.35
2019-03-08T02:16:36.395Z,64.46
2019-03-08T02:19:05.802Z,64.51
2019-03-08T02:21:38.396Z,64.52
2019-03-08T02:24:10.828Z,64.67
2019-03-08T02:26:40.263Z,64.29
2019-03-08T02:29:09.678Z,64.42
2019-03-08T02:31:39.205Z,64.75
2019-03-08T02:34:08.912Z,64.92
2019-03-08T02:36:38.346Z,65.12
2019-03-08T02:39:09.470Z,65.00
2019-03-08T02:41:40.582Z,65.07
2019-03-08T02:44:10.138Z,65.20
2019-03-08T02:46:39.538Z,65.70
2019-03-08T02:49:09.171Z,65.84
2019-03-08T02:51:38.703Z,66.32
2019-03-08T02:54:08.107Z,66.43
2019-03-08T02:56:38.104Z,65.99
2019-03-08T02:59:07.634Z,65.61
2019-03-08T03:01:37.064Z,66.08
2019-03-08T03:04:06.489Z,66.24
2019-03-08T03:06:36.000Z,65.98
2019-03-08T03:09:06.614Z,65.96
2019-03-08T03:11:37.670Z,66.15
2019-03-08T03:14:07.149Z,65.79
2019-03-08T03:16:36.634Z,66.07
2019-03-08T03:19:06.038Z,66.21
2019-03-08T03:21:37.084Z,66.42
2019-03-08T03:24:06.671Z,66.86
2019-03-08T03:26:36.098Z,69.33
2019-03-08T03:29:07.945Z,71.06
2019-03-08T03:31:37.368Z,73.25
2019-03-08T03:34:06.791Z,74.78
2019-03-08T03:36:36.188Z,76.00
2019-03-08T03:39:07.153Z,75.29
2019-03-08T03:41:36.962Z,76.61
2019-03-08T03:44:06.475Z,75.64
2019-03-08T03:46:37.760Z,76.31
2019-03-08T03:49:07.168Z,76.33
2019-03-08T03:51:36.600Z,76.18
2019-03-08T03:54:08.254Z,76.39
2019-03-08T03:56:37.680Z,76.56
2019-03-08T03:59:15.945Z,76.04
2019-03-08T04:01:47.367Z,77.38
2019-03-08T04:04:16.844Z,77.89
2019-03-08T04:06:46.273Z,77.21
2019-03-08T04:09:15.685Z,77.09
2019-03-08T04:11:46.637Z,77.26
2019-03-08T04:14:16.037Z,77.92
2019-03-08T04:16:45.466Z,77.79
2019-03-08T04:19:15.007Z,77.71
2019-03-08T04:21:44.507Z,77.68
2019-03-08T04:24:13.935Z,76.82
2019-03-08T04:26:43.479Z,76.58
2019-03-08T04:29:13.107Z,76.60
2019-03-08T04:31:45.881Z,75.99
2019-03-08T04:34:15.340Z,76.83
2019-03-08T04:36:44.759Z,76.33
2019-03-08T04:39:14.715Z,75.64
2019-03-08T04:41:44.139Z,75.60
2019-03-08T04:44:16.616Z,75.77
2019-03-08T04:46:46.049Z,74.84
2019-03-08T04:49:15.449Z,75.15
2019-03-08T04:51:46.502Z,74.78
2019-03-08T04:54:15.912Z,74.87
2019-03-08T04:56:46.402Z,74.05
2019-03-08T04:59:15.832Z,74.12
2019-03-08T05:01:46.296Z,74.29
2019-03-08T05:04:16.702Z,74.46
2019-03-08T05:06:48.552Z,74.58
2019-03-08T05:09:19.268Z,74.08
2019-03-08T05:11:48.762Z,74.01
2019-03-08T05:14:18.157Z,74.22
2019-03-08T05:16:47.652Z,73.96
2019-03-08T05:19:17.050Z,73.91
2019-03-08T05:21:46.475Z,73.77
2019-03-08T05:24:15.882Z,73.61
2019-03-08T05:26:45.318Z,73.92
2019-03-08T05:29:14.738Z,73.79
2019-03-08T05:31:45.817Z,73.90
2019-03-08T05:34:15.266Z,74.04
2019-03-08T05:36:46.484Z,74.38
2019-03-08T05:39:15.995Z,74.19
2019-03-08T05:41:45.398Z,74.29
2019-03-08T05:44:15.311Z,74.56
2019-03-08T05:46:44.716Z,74.54
2019-03-08T05:49:14.796Z,75.02
2019-03-08T05:51:44.200Z,75.03
2019-03-08T05:54:13.641Z,75.20
2019-03-08T05:56:43.051Z,74.92
2019-03-08T05:59:12.459Z,75.29
2019-03-08T06:01:41.884Z,74.61
2019-03-08T06:04:12.157Z,74.69
2019-03-08T06:06:43.178Z,74.65
2019-03-08T06:09:12.619Z,74.89
2019-03-08T06:11:42.029Z,74.92
2019-03-08T06:14:11.941Z,74.76
2019-03-08T06:16:41.350Z,74.98
2019-03-08T06:19:10.774Z,75.18
2019-03-08T06:21:40.201Z,75.01
2019-03-08T06:24:09.623Z,74.79
2019-03-08T06:26:40.669Z,74.71
2019-03-08T06:29:10.562Z,74.89
2019-03-08T06:31:39.968Z,74.39
2019-03-08T06:34:09.393Z,73.80
2019-03-08T06:36:38.801Z,73.57
2019-03-08T06:39:08.369Z,73.32
2019-03-08T06:41:37.815Z,73.51
2019-03-08T06:44:07.211Z,73.33
2019-03-08T06:46:36.881Z,73.66
2019-03-08T06:49:06.717Z,73.34
2019-03-08T06:51:36.156Z,73.19
2019-03-08T06:54:05.696Z,73.61
2019-03-08T06:56:35.195Z,73.69
2019-03-08T06:59:08.537Z,73.76
2019-03-08T07:01:41.655Z,74.24
2019-03-08T07:04:09.535Z,73.71
2019-03-08T07:06:39.525Z,74.50
2019-03-08T07:09:09.085Z,74.59
2019-03-08T07:11:38.864Z,74.80
2019-03-08T07:14:08.588Z,74.97
2019-03-08T07:16:39.844Z,75.04
2019-03-08T07:19:10.731Z,75.29
2019-03-08T07:21:44.636Z,75.47
2019-03-08T07:24:15.702Z,75.27
2019-03-08T07:26:49.956Z,75.79
2019-03-08T07:29:21.145Z,75.93
2019-03-08T07:32:01.487Z,76.48
2019-03-08T07:34:32.702Z,76.66
2019-03-08T07:37:22.156Z,76.42
2019-03-08T07:39:55.891Z,76.47
2019-03-08T07:42:39.079Z,76.54
2019-03-08T07:45:17.433Z,76.48
2019-03-08T07:47:51.452Z,76.11
2019-03-08T07:50:22.538Z,75.86
2019-03-08T07:52:56.419Z,76.21
2019-03-08T08:07:39.963Z,76.32
2019-03-08T08:10:13.283Z,77.15
2019-03-08T08:12:59.896Z,76.88
2019-03-08T08:15:43.111Z,77.37
2019-03-08T08:18:14.186Z,77.69
2019-03-08T08:21:01.541Z,77.38
2019-03-08T08:23:35.039Z,77.52
2019-03-08T08:26:11.144Z,77.70
2019-03-08T08:28:49.732Z,77.92
2019-03-08T08:31:33.174Z,78.11
2019-03-08T08:34:22.113Z,78.88
2019-03-08T08:40:06.892Z,81.24
2019-03-08T08:42:39.563Z,79.79
2019-03-08T08:45:15.428Z,78.61
2019-03-08T08:47:49.215Z,78.98
2019-03-08T08:50:22.763Z,79.49
2019-03-08T08:53:12.165Z,80.08
2019-03-08T08:55:58.600Z,80.50
2019-03-08T08:58:39.539Z,80.55
2019-03-08T09:01:24.358Z,81.05
2019-03-08T09:04:07.445Z,81.36
2019-03-08T09:06:38.605Z,81.84
2019-03-08T09:09:19.883Z,82.65
2019-03-08T09:11:52.838Z,81.81
2019-03-08T09:14:24.197Z,82.36
2019-03-08T09:16:58.269Z,82.23
2019-03-08T09:19:36.945Z,82.42
2019-03-08T09:22:08.344Z,81.68
2019-03-08T09:24:42.167Z,81.44
2019-03-08T09:27:19.010Z,80.65
2019-03-08T09:29:55.786Z,79.61
2019-03-08T09:32:29.889Z,79.25
2019-03-08T09:35:03.905Z,79.27
2019-03-08T09:37:37.848Z,79.96
2019-03-08T09:40:15.348Z,80.48
2019-03-08T09:43:05.238Z,80.56
2019-03-08T09:45:42.467Z,81.26
2019-03-08T09:48:16.668Z,79.45
2019-03-08T09:51:04.288Z,79.47
2019-03-08T09:53:44.371Z,77.75
2019-03-08T09:56:21.670Z,76.47
2019-03-08T09:58:52.759Z,75.21
2019-03-08T10:01:23.970Z,75.43
2019-03-08T10:04:01.066Z,74.09
2019-03-08T10:06:38.670Z,71.98
2019-03-08T10:09:09.967Z,72.16
2019-03-08T10:11:50.111Z,72.13
2019-03-08T10:14:21.186Z,72.52
2019-03-08T10:17:01.167Z,71.41
2019-03-08T10:19:41.026Z,71.04
2019-03-08T10:22:12.114Z,70.60
2019-03-08T10:24:55.018Z,71.46
2019-03-08T10:27:38.252Z,69.72
2019-03-08T10:30:10.144Z,71.04
2019-03-08T10:32:56.554Z,71.67
2019-03-08T10:35:42.655Z,71.57
2019-03-08T10:38:22.312Z,71.26
2019-03-08T10:40:55.216Z,70.73
2019-03-08T10:43:44.774Z,70.13
2019-03-08T10:46:21.615Z,67.65
2019-03-08T10:49:10.725Z,65.03
2019-03-08T10:51:41.798Z,65.48
2019-03-08T10:54:24.860Z,65.35
2019-03-08T10:56:55.961Z,65.67
2019-03-08T10:59:27.124Z,64.84
2019-03-08T11:02:14.653Z,60.20
2019-03-08T11:05:00.786Z,60.66
2019-03-08T11:07:48.058Z,60.51
2019-03-08T11:10:22.063Z,64.42
2019-03-08T11:13:05.162Z,64.46
2019-03-08T11:15:51.283Z,64.27
2019-03-08T11:18:22.328Z,64.49
2019-03-08T11:21:05.837Z,64.21
2019-03-08T11:23:45.982Z,64.15
2019-03-08T11:26:28.785Z,64.21
2019-03-08T11:29:16.669Z,62.83
2019-03-08T11:31:50.187Z,64.10
2019-03-08T11:34:32.939Z,61.70
2019-03-08T11:37:07.192Z,60.95
2019-03-08T11:39:41.019Z,61.11
2019-03-08T11:42:17.910Z,60.87
2019-03-08T11:44:48.994Z,59.51
2019-03-08T11:47:20.052Z,59.08
2019-03-08T11:50:07.496Z,58.23
2019-03-08T11:52:53.903Z,54.80
2019-03-08T11:55:40.392Z,56.52
2019-03-08T11:58:11.506Z,55.53
2019-03-08T12:00:45.089Z,55.80
2019-03-08T12:03:33.901Z,56.21
2019-03-08T12:06:04.980Z,58.74
2019-03-08T12:08:41.707Z,60.16
2019-03-08T12:11:16.486Z,58.67
2019-03-08T12:14:03.831Z,58.79
2019-03-08T12:16:52.159Z,56.06
2019-03-08T12:19:32.111Z,55.54
2019-03-08T12:22:03.225Z,54.47
2019-03-08T12:24:36.748Z,53.00
2019-03-08T12:27:13.968Z,51.64
2019-03-08T12:29:52.272Z,51.99
2019-03-08T12:32:23.605Z,52.33
2019-03-08T12:35:03.949Z,51.07
2019-03-08T12:37:35.016Z,51.61
2019-03-08T12:40:11.948Z,52.43
2019-03-08T12:42:46.266Z,52.94
2019-03-08T12:45:17.493Z,53.09
2019-03-08T12:47:48.552Z,53.32
2019-03-08T12:50:25.314Z,53.50
2019-03-08T12:52:56.367Z,53.93
2019-03-08T12:55:27.447Z,53.60
2019-03-08T12:58:15.965Z,52.51
2019-03-08T13:00:55.813Z,50.95
2019-03-08T13:03:44.105Z,51.26
2019-03-08T13:06:20.980Z,51.38
2019-03-08T13:09:04.293Z,49.71
2019-03-08T13:11:35.432Z,50.63
2019-03-08T13:14:05.093Z,50.12
2019-03-08T13:16:39.289Z,50.74
2019-03-08T13:19:08.715Z,50.95
2019-03-08T13:21:38.133Z,51.27
2019-03-08T13:33:19.312Z,52.01
2019-03-08T13:35:48.731Z,51.64
2019-03-08T13:38:18.536Z,51.19
2019-03-08T13:40:47.964Z,51.73
2019-03-08T13:43:19.130Z,50.99
2019-03-08T13:45:48.665Z,50.24
2019-03-08T13:48:18.243Z,49.91
2019-03-08T13:50:47.747Z,49.71
2019-03-08T13:53:17.312Z,48.85
2019-03-08T13:55:46.843Z,49.03
2019-03-08T13:58:17.422Z,48.98
2019-03-08T14:00:47.305Z,49.47
2019-03-08T14:03:16.728Z,49.53
2019-03-08T14:05:46.218Z,49.96
2019-03-08T14:08:15.669Z,48.14
2019-03-08T14:10:45.088Z,48.60
2019-03-08T14:13:14.615Z,49.04
2019-03-08T14:15:44.065Z,48.62
2019-03-08T14:18:13.489Z,48.96
2019-03-08T14:20:43.006Z,48.73
2019-03-08T14:23:13.498Z,50.01
2019-03-08T14:25:42.936Z,48.73
2019-03-08T14:28:15.184Z,48.92
2019-03-08T14:30:57.799Z,49.85
2019-03-08T14:33:23.757Z,49.34
2019-03-08T14:35:53.282Z,49.92
2019-03-08T14:38:22.765Z,49.70
2019-03-08T14:40:59.801Z,49.16
2019-03-08T14:43:30.890Z,49.10
2019-03-08T14:55:01.749Z,48.65
2019-03-08T14:57:32.516Z,49.08
2019-03-08T15:00:03.587Z,49.32
2019-03-08T15:02:34.104Z,49.29
2019-03-08T15:05:10.900Z,48.91
2019-03-08T15:07:37.337Z,49.10
2019-03-08T15:10:09.251Z,49.54
2019-03-08T15:12:48.429Z,49.15
2019-03-08T15:15:12.830Z,48.25
2019-03-08T15:17:43.514Z,47.35
2019-03-08T15:20:18.323Z,48.06
2019-03-08T15:22:48.208Z,48.12
2019-03-08T15:25:17.792Z,48.65
2019-03-08T15:27:47.276Z,49.28
2019-03-08T15:30:18.283Z,51.11
2019-03-08T15:32:47.942Z,51.49
2019-03-08T15:35:18.407Z,52.15
2019-03-08T15:37:47.853Z,50.76
2019-03-08T15:40:19.829Z,50.25
2019-03-08T15:42:49.389Z,49.52
2019-03-08T15:45:20.681Z,48.94
2019-03-08T15:47:50.515Z,48.94
2019-03-08T15:50:23.026Z,49.23
2019-03-08T15:52:53.430Z,47.03
2019-03-08T15:55:22.947Z,47.47
2019-03-08T15:57:53.429Z,47.52
2019-03-08T16:00:23.720Z,47.49
2019-03-08T16:02:54.579Z,47.70
2019-03-08T16:05:28.348Z,47.89
2019-03-08T16:07:57.830Z,48.67
2019-03-08T16:10:29.244Z,48.67
2019-03-08T16:12:58.740Z,50.09
2019-03-08T16:15:28.225Z,49.27
2019-03-08T16:17:57.669Z,48.88
2019-03-08T16:20:27.149Z,49.90
2019-03-08T16:22:56.928Z,49.64
2019-03-08T16:25:26.340Z,50.47
2019-03-08T16:27:55.674Z,51.04
2019-03-08T16:30:38.724Z,51.78
2019-03-08T16:33:18.824Z,51.97
2019-03-08T16:35:53.504Z,52.47
2019-03-08T16:41:28.565Z,53.63
2019-03-08T16:43:59.409Z,53.60
2019-03-08T16:46:48.414Z,54.33
2019-03-08T16:49:35.890Z,54.00
2019-03-08T16:52:06.738Z,54.54
2019-03-08T16:54:53.921Z,54.60
2019-03-08T16:57:30.879Z,55.21
2019-03-08T17:00:04.918Z,55.43
2019-03-08T17:02:43.085Z,56.20
2019-03-08T17:05:30.694Z,57.41
2019-03-08T17:08:02.064Z,58.05
2019-03-08T17:10:36.063Z,58.18
2019-03-08T17:13:27.710Z,58.84
2019-03-08T17:16:15.222Z,59.35
2019-03-08T17:19:08.968Z,59.75
2019-03-08T17:21:41.420Z,59.28
2019-03-08T17:24:18.588Z,59.24
2019-03-08T17:26:50.891Z,59.32
2019-03-08T17:29:24.574Z,59.35
2019-03-08T17:32:04.960Z,59.51
2019-03-08T17:34:48.166Z,59.80
2019-03-08T17:37:19.250Z,59.93
2019-03-08T17:39:53.513Z,60.12
2019-03-08T17:42:28.817Z,60.26
2019-03-08T17:45:16.415Z,60.21
2019-03-08T17:47:53.004Z,60.44
2019-03-08T17:50:36.014Z,60.88
2019-03-08T17:53:23.203Z,61.48
2019-03-08T17:55:56.943Z,61.85
2019-03-08T17:58:43.361Z,62.52
2019-03-08T18:01:17.180Z,62.90
2019-03-08T18:03:48.548Z,62.69
2019-03-08T18:06:19.603Z,63.12
2019-03-08T18:09:01.769Z,63.40
2019-03-08T18:11:40.348Z,63.81
2019-03-08T18:14:27.754Z,64.57
2019-03-08T18:17:15.013Z,65.19
2019-03-08T18:19:46.102Z,65.64
2019-03-08T18:22:22.537Z,65.94
2019-03-08T18:24:59.829Z,66.42
2019-03-08T18:27:48.998Z,66.92
2019-03-08T18:30:24.600Z,66.97
2019-03-08T18:33:12.284Z,67.12
2019-03-08T18:35:52.296Z,67.60
2019-03-08T18:38:23.511Z,67.94
2019-03-08T18:41:00.631Z,68.03
2019-03-08T18:43:32.351Z,68.37
2019-03-08T18:46:18.838Z,68.67
2019-03-08T18:48:54.888Z,68.80
2019-03-08T18:51:29.511Z,69.08
2019-03-08T18:54:18.954Z,69.14
2019-03-08T18:56:59.090Z,68.96
2019-03-08T18:59:42.499Z,68.81
2019-03-08T19:02:33.368Z,68.92
2019-03-08T19:05:04.530Z,68.86
2019-03-08T19:07:37.199Z,68.80
2019-03-08T19:10:14.586Z,68.83
2019-03-08T19:12:49.100Z,68.75
2019-03-08T19:15:36.694Z,68.75
2019-03-08T19:18:07.996Z,69.11
2019-03-08T19:20:55.883Z,69.00
2019-03-08T19:23:45.684Z,68.91
2019-03-08T19:26:33.030Z,68.99
2019-03-08T19:29:10.355Z,69.23
2019-03-08T19:31:47.526Z,69.07
2019-03-08T19:34:37.931Z,69.21
2019-03-08T19:37:14.867Z,68.85
2019-03-08T19:39:45.908Z,68.92
2019-03-08T19:42:20.565Z,69.07
2019-03-08T19:44:54.683Z,68.72
2019-03-08T19:47:28.304Z,68.54
2019-03-08T19:50:08.497Z,68.46
2019-03-08T19:52:59.396Z,68.39
2019-03-08T19:55:39.284Z,68.36
2019-03-08T19:58:22.021Z,68.67
2019-03-08T20:00:57.411Z,68.16
2019-03-08T20:03:40.707Z,68.31
2019-03-08T20:06:23.079Z,68.20
2019-03-08T20:08:57.618Z,68.48
2019-03-08T20:11:33.000Z,68.42
2019-03-08T20:14:17.875Z,68.55
2019-03-08T20:16:51.730Z,68.99
2019-03-08T20:19:22.922Z,68.60
2019-03-08T20:21:54.162Z,69.04
2019-03-08T20:24:25.303Z,69.17
2019-03-08T20:27:08.743Z,69.20
2019-03-08T20:29:40.047Z,68.88
2019-03-08T20:32:27.384Z,68.92
2019-03-08T20:35:14.402Z,69.24
2019-03-08T20:37:49.763Z,69.22
2019-03-08T20:40:35.970Z,69.63
2019-03-08T20:43:13.169Z,69.70
2019-03-08T20:45:44.340Z,70.21
2019-03-08T20:48:13.761Z,70.57
2019-03-08T20:50:43.308Z,70.81
2019-03-08T20:53:14.342Z,70.67
2019-03-08T20:55:44.113Z,71.26
2019-03-08T20:58:14.736Z,71.56
2019-03-08T21:00:44.378Z,71.74
2019-03-08T21:03:13.890Z,72.26
2019-03-08T21:05:45.094Z,72.60
2019-03-08T21:08:14.706Z,73.19
2019-03-08T21:10:45.680Z,73.25
2019-03-08T21:13:15.268Z,73.26
2019-03-08T21:15:44.837Z,73.35
2019-03-08T21:18:17.273Z,73.35
2019-03-08T21:20:46.827Z,73.09
2019-03-08T21:23:16.642Z,73.03
2019-03-08T21:25:48.827Z,73.27
2019-03-08T21:28:18.331Z,73.21
2019-03-08T21:30:49.610Z,72.89
2019-03-08T21:33:23.547Z,72.90
2019-03-08T21:35:57.496Z,72.81
2019-03-08T21:38:27.442Z,72.82
2019-03-08T21:40:56.942Z,73.09
2019-03-08T21:43:28.288Z,72.90
2019-03-08T21:45:57.890Z,72.72
2019-03-08T21:48:27.464Z,72.51
2019-03-08T21:50:59.994Z,72.34
2019-03-08T21:53:29.502Z,72.20
2019-03-08T21:55:59.406Z,72.36
2019-03-08T21:58:37.686Z,72.45
2019-03-08T22:01:07.449Z,72.30
2019-03-08T22:03:36.957Z,72.28
2019-03-08T22:06:06.718Z,72.02
2019-03-08T22:08:40.720Z,71.88
2019-03-08T22:11:12.382Z,72.36
2019-03-08T22:13:41.850Z,73.39
2019-03-08T22:16:11.425Z,74.29
2019-03-08T22:18:41.808Z,75.38
2019-03-08T22:21:15.226Z,76.50
2019-03-08T22:23:45.226Z,76.85
2019-03-08T22:26:14.652Z,77.17
2019-03-08T22:28:44.076Z,77.07
2019-03-08T22:31:13.499Z,77.88
2019-03-08T22:33:44.012Z,78.04
2019-03-08T22:36:13.433Z,78.26
2019-03-08T22:38:42.867Z,79.09
2019-03-08T22:41:16.894Z,78.98
2019-03-08T22:43:50.557Z,79.29
2019-03-08T22:46:25.037Z,79.56
2019-03-08T22:48:54.465Z,79.11
2019-03-08T22:51:24.445Z,78.78
2019-03-08T22:53:53.848Z,78.99
2019-03-08T22:56:23.283Z,78.99
2019-03-08T22:58:56.529Z,78.65
2019-03-08T23:01:27.733Z,78.35
2019-03-08T23:03:57.488Z,78.12
2019-03-08T23:06:27.319Z,77.84
2019-03-08T23:08:59.597Z,77.40
2019-03-08T23:11:29.112Z,77.72
2019-03-08T23:13:58.986Z,77.07
2019-03-08T23:16:30.100Z,77.17
2019-03-08T23:18:59.500Z,76.73
2019-03-08T23:21:29.785Z,76.88
2019-03-08T23:23:59.366Z,76.74
2019-03-08T23:26:30.471Z,76.52
2019-03-08T23:29:07.684Z,76.45
2019-03-08T23:31:38.769Z,76.12
2019-03-08T23:34:08.196Z,75.84
2019-03-08T23:36:37.674Z,75.80
2019-03-08T23:39:08.624Z,75.59
2019-03-08T23:41:41.375Z,75.45
2019-03-08T23:44:13.275Z,75.02
2019-03-08T23:46:42.715Z,74.82
2019-03-08T23:49:15.491Z,75.17
2019-03-08T23:51:44.979Z,74.83
2019-03-08T23:54:14.667Z,74.29
2019-03-08T23:56:44.092Z,74.43
2019-03-08T23:59:13.511Z,74.59
